Time;durP1;ratioP1;P1;durP2;ratioP2;P2;SDS_P1;SDS_P2;PMS_P1;PMS_P2;Temp;Humidity;BMP_temperature;BMP_pressure;BME280_temperature;BME280_humidity;BME280_pressure;Samples;Min_cycle;Max_cycle;Signal;HPM_P1;HPM_P2
2022/01/21 00:00:45;;;;;;;16.50;2.97;;;;;;;-146.48;100.00;41529.16;5306919;28;20035;-67
2022/01/21 00:03:16;;;;;;;14.07;1.80;;;;;;;-146.48;100.00;41594.97;5306025;28;20012;-68
2022/01/21 00:05:48;;;;;;;19.57;2.57;;;;;;;-146.48;100.00;41722.63;5305437;28;20177;-67
2022/01/21 00:08:19;;;;;;;20.17;2.37;;;;;;;-146.48;100.00;41706.66;5305884;28;20382;-67
2022/01/21 00:10:51;;;;;;;12.17;1.97;;;;;;;-146.48;100.00;41812.38;5306151;28;20078;-69
2022/01/21 00:13:33;;;;;;;14.83;2.83;;;;;;;-146.48;100.00;41778.47;5305257;28;20031;-68
2022/01/21 00:16:18;;;;;;;20.13;2.47;;;;;;;-146.48;100.00;41868.22;5305907;28;20026;-68
2022/01/21 00:18:57;;;;;;;17.53;2.60;;;;;;;-146.48;100.00;41886.16;5306274;28;20392;-68
2022/01/21 00:30:14;;;;;;;15.70;1.83;;;;;;;-146.48;100.00;42251.16;5305928;28;20039;-68
2022/01/21 00:32:47;;;;;;;13.00;1.90;;;;;;;-146.48;100.00;42396.78;5304548;28;20032;-68
2022/01/21 00:35:20;;;;;;;15.80;1.90;;;;;;;-146.48;100.00;42392.78;5304216;28;20028;-68
2022/01/21 00:37:51;;;;;;;14.20;2.30;;;;;;;-146.48;100.00;42466.59;5305586;28;20494;-68
2022/01/21 00:40:24;;;;;;;13.40;1.90;;;;;;;-146.48;100.00;42478.56;5304593;28;20024;-66
2022/01/21 00:46:00;;;;;;;12.97;2.27;;;;;;;-146.48;100.00;42588.25;5292961;28;20359;-67
2022/01/21 00:48:32;;;;;;;17.30;2.10;;;;;;;-146.48;100.00;42648.13;5305058;28;20028;-67
2022/01/21 00:51:03;;;;;;;18.00;1.47;;;;;;;-146.48;100.00;42626.16;5305087;28;20032;-68
2022/01/21 00:53:34;;;;;;;16.87;2.17;;;;;;;-146.48;100.00;42670.06;5305544;28;20024;-67
2022/01/21 00:56:06;;;;;;;11.87;1.50;;;;;;;-146.48;100.00;42713.94;5304119;28;20063;-67
2022/01/21 00:58:37;;;;;;;13.93;1.87;;;;;;;-146.48;100.00;42785.75;5305360;28;20032;-68
2022/01/21 01:01:08;;;;;;;16.03;1.60;;;;;;;-146.48;100.00;42747.84;5304630;28;20020;-67
2022/01/21 01:03:40;;;;;;;14.60;1.80;;;;;;;-146.48;100.00;42684.03;5304602;28;20024;-68
2022/01/21 01:06:11;;;;;;;11.27;1.70;;;;;;;-146.48;100.00;42701.97;5304668;28;20880;-67
2022/01/21 01:08:42;;;;;;;17.00;1.70;;;;;;;-146.48;100.00;42763.81;5304557;28;20175;-67
2022/01/21 01:11:23;;;;;;;18.43;1.60;;;;;;;-146.48;100.00;42767.81;5304764;28;20095;-67
2022/01/21 01:28:05;;;;;;;15.57;1.77;;;;;;;-146.48;100.00;43035.13;5304573;28;20036;-66
2022/01/21 01:30:37;;;;;;;15.87;1.57;;;;;;;-146.48;100.00;42907.44;5304298;28;20028;-66
2022/01/21 01:33:10;;;;;;;13.13;1.57;;;;;;;-146.48;100.00;42945.34;5304386;28;20028;-67
2022/01/21 01:35:42;;;;;;;12.60;1.17;;;;;;;-146.48;100.00;43043.09;5304899;28;20031;-66
2022/01/21 01:38:40;;;;;;;12.40;1.43;;;;;;;-146.48;100.00;43114.94;5303190;28;20040;-67
2022/01/21 01:41:15;;;;;;;11.27;2.30;;;;;;;-146.48;100.00;43087.00;5304380;28;20562;-67
2022/01/21 01:52:01;;;;;;;13.87;1.30;;;;;;;-146.48;100.00;43226.66;5303014;28;20468;-68
2022/01/21 01:54:34;;;;;;;15.03;1.77;;;;;;;-146.48;100.00;43212.69;5304482;28;20077;-67
2022/01/21 01:57:06;;;;;;;6.60;0.83;;;;;;;-146.48;100.00;43282.53;5303516;28;20039;-68
2022/01/21 01:59:38;;;;;;;10.13;1.53;;;;;;;-146.48;100.00;43218.69;5303771;28;20463;-67
2022/01/21 02:02:12;;;;;;;11.67;1.33;;;;;;;-146.48;100.00;43210.69;5303782;28;20024;-68
2022/01/21 02:04:45;;;;;;;12.33;1.00;;;;;;;-146.48;100.00;43162.81;5303430;28;20498;-68
2022/01/21 02:07:16;;;;;;;17.57;1.90;;;;;;;-146.48;100.00;43176.78;5303325;28;20487;-67
2022/01/21 02:09:48;;;;;;;16.33;1.97;;;;;;;-146.48;100.00;43220.66;5304221;28;20036;-68
2022/01/21 02:12:19;;;;;;;8.60;1.13;;;;;;;-146.48;100.00;43290.50;5301950;28;20028;-67
2022/01/21 02:14:51;;;;;;;12.17;1.50;;;;;;;-146.48;100.00;43200.72;5304181;28;20034;-67
2022/01/21 02:22:51;;;;;;;11.97;1.10;;;;;;;-146.48;100.00;43278.53;5304004;28;20074;-66
2022/01/21 02:25:22;;;;;;;12.40;1.53;;;;;;;-146.48;100.00;43282.53;5303166;28;20060;-67
2022/01/21 02:27:58;;;;;;;10.30;1.20;;;;;;;-146.48;100.00;43276.53;5302957;28;20024;-67
2022/01/21 02:30:29;;;;;;;14.10;1.20;;;;;;;-146.48;100.00;43370.31;5303653;28;20467;-67
2022/01/21 02:33:00;;;;;;;9.73;1.17;;;;;;;-146.48;100.00;43444.13;5302520;28;20027;-66
2022/01/21 02:35:32;;;;;;;12.10;1.30;;;;;;;-146.48;100.00;43412.22;5303627;28;20111;-66
2022/01/21 02:38:03;;;;;;;15.07;1.53;;;;;;;-146.48;100.00;43374.31;5302920;28;20047;-67
2022/01/21 02:40:34;;;;;;;12.33;1.30;;;;;;;-146.48;100.00;43424.19;5302705;28;20115;-66
2022/01/21 02:43:05;;;;;;;22.23;3.13;;;;;;;-146.48;100.00;43525.94;5302880;28;20031;-67
2022/01/21 02:45:39;;;;;;;9.27;1.00;;;;;;;-146.48;100.00;43500.00;5303681;28;20043;-67
2022/01/21 02:48:11;;;;;;;19.20;1.77;;;;;;;-146.48;100.00;43500.00;5302214;28;20028;-66
2022/01/21 02:50:42;;;;;;;13.83;1.10;;;;;;;-146.48;100.00;43480.03;5303332;28;20046;-67
2022/01/21 02:53:38;;;;;;;8.27;1.10;;;;;;;-146.48;100.00;43547.88;5302641;28;20028;-67
2022/01/21 02:56:10;;;;;;;17.13;1.97;;;;;;;-146.48;100.00;43633.69;5302166;28;20107;-67
2022/01/21 02:58:41;;;;;;;15.07;1.40;;;;;;;-146.48;100.00;43629.69;5303240;28;20185;-67
2022/01/21 03:01:14;;;;;;;12.73;1.57;;;;;;;-146.48;100.00;43470.06;5297300;28;20036;-67
2022/01/21 03:03:46;;;;;;;9.00;1.50;;;;;;;-146.48;100.00;43661.63;5289754;28;20033;-67
2022/01/21 03:06:21;;;;;;;12.60;1.40;;;;;;;-146.48;100.00;43683.56;5280194;28;20087;-67
2022/01/21 03:08:54;;;;;;;13.77;1.20;;;;;;;-146.48;100.00;43647.66;5280203;28;20025;-67
2022/01/21 03:11:28;;;;;;;11.17;1.23;;;;;;;-146.48;100.00;43659.63;5281446;28;20021;-67
2022/01/21 03:14:01;;;;;;;8.60;1.00;;;;;;;-146.48;100.00;43669.59;5281004;28;20540;-67
2022/01/21 03:16:32;;;;;;;14.70;1.40;;;;;;;-146.48;100.00;43693.53;5281098;28;20112;-67
2022/01/21 03:19:03;;;;;;;16.40;1.50;;;;;;;-146.48;100.00;43627.69;5281111;28;20036;-67
2022/01/21 03:21:36;;;;;;;13.20;1.40;;;;;;;-146.48;100.00;43699.53;5281982;28;20387;-67
2022/01/21 03:24:08;;;;;;;12.03;1.00;;;;;;;-146.48;100.00;43647.66;5280249;28;20115;-67
2022/01/21 03:26:39;;;;;;;13.70;2.37;;;;;;;-146.48;100.00;43567.84;5281700;28;20518;-67
2022/01/21 03:29:10;;;;;;;13.27;1.67;;;;;;;-146.48;100.00;43567.84;5280460;28;20029;-67
2022/01/21 03:31:42;;;;;;;14.47;1.07;;;;;;;-146.48;100.00;43579.81;5281635;28;20032;-67
2022/01/21 03:34:13;;;;;;;14.90;1.77;;;;;;;-146.48;100.00;43486.03;5280823;28;20459;-67
2022/01/21 03:36:44;;;;;;;10.47;1.23;;;;;;;-146.48;100.00;43539.91;5280667;28;20433;-67
2022/01/21 03:39:16;;;;;;;11.97;1.17;;;;;;;-146.48;100.00;43515.97;5280677;28;20038;-67
2022/01/21 03:41:48;;;;;;;21.10;1.27;;;;;;;-146.48;100.00;43430.16;5281377;28;20032;-67
2022/01/21 03:44:19;;;;;;;9.57;1.00;;;;;;;-146.48;100.00;43424.19;5280100;28;20032;-67
2022/01/21 03:46:50;;;;;;;14.13;1.03;;;;;;;-146.48;100.00;43448.13;5281548;28;20029;-67
2022/01/21 03:49:22;;;;;;;16.00;2.10;;;;;;;-146.48;100.00;43394.25;5280703;28;20119;-67
2022/01/21 03:51:53;;;;;;;11.73;1.47;;;;;;;-146.48;100.00;43416.19;5280320;28;20024;-67
2022/01/21 03:54:24;;;;;;;14.47;1.27;;;;;;;-146.48;100.00;43416.19;5281038;28;20036;-67
2022/01/21 03:56:55;;;;;;;18.20;1.93;;;;;;;-146.48;100.00;43360.34;5280914;28;20032;-66
2022/01/21 03:59:27;;;;;;;11.67;1.10;;;;;;;-146.48;100.00;43438.16;5280172;28;20028;-67
2022/01/21 04:01:59;;;;;;;16.90;1.07;;;;;;;-146.48;100.00;43386.28;5280429;28;20034;-68
2022/01/21 04:04:31;;;;;;;9.57;1.97;;;;;;;-146.48;100.00;43394.25;5280661;28;20029;-67
2022/01/21 04:07:03;;;;;;;11.97;1.73;;;;;;;-146.48;100.00;43356.34;5280486;28;20041;-67
2022/01/21 04:09:35;;;;;;;12.17;1.10;;;;;;;-146.48;100.00;43318.44;5281404;28;20108;-67
2022/01/21 04:12:07;;;;;;;10.40;1.07;;;;;;;-146.48;100.00;43394.25;5279849;28;20108;-68
2022/01/21 04:14:38;;;;;;;13.57;1.00;;;;;;;-146.48;100.00;43354.34;5280999;28;20032;-68
2022/01/21 04:17:09;;;;;;;12.30;0.90;;;;;;;-146.48;100.00;43296.50;5280398;28;20479;-66
2022/01/21 04:19:40;;;;;;;18.70;1.40;;;;;;;-146.48;100.00;43280.53;5280473;28;20491;-66
2022/01/21 04:22:12;;;;;;;12.83;1.73;;;;;;;-146.48;100.00;43290.50;5280574;28;20070;-67
2022/01/21 04:24:48;;;;;;;13.17;1.50;;;;;;;-146.48;100.00;43278.53;5280954;28;20040;-67
2022/01/21 04:27:19;;;;;;;13.33;1.33;;;;;;;-146.48;100.00;43188.75;5279491;28;20032;-67
2022/01/21 04:29:51;;;;;;;9.90;0.77;;;;;;;-146.48;100.00;43262.56;5280887;28;20111;-67
2022/01/21 04:32:22;;;;;;;10.40;0.80;;;;;;;-146.48;100.00;43340.38;5279813;28;20417;-67
2022/01/21 04:34:53;;;;;;;11.80;0.67;;;;;;;-146.48;100.00;43374.31;5282148;28;20029;-67
2022/01/21 04:37:25;;;;;;;8.03;0.60;;;;;;;-146.48;100.00;43426.19;5284430;28;20097;-67
2022/01/21 04:48:08;;;;;;;10.53;0.87;;;;;;;-146.48;100.00;43502.00;5283593;28;20041;-67
2022/01/21 04:50:53;;;;;;;12.40;0.70;;;;;;;-146.48;100.00;43392.25;5284694;28;20029;-68
2022/01/21 04:53:27;;;;;;;13.80;0.73;;;;;;;-146.48;100.00;43322.44;5283365;28;20029;-66
2022/01/21 04:55:58;;;;;;;9.90;1.30;;;;;;;-146.48;100.00;43442.13;5283755;28;20033;-66
2022/01/21 04:58:30;;;;;;;5.03;0.60;;;;;;;-146.48;100.00;43372.31;5284309;28;20437;-67
2022/01/21 05:01:04;;;;;;;14.00;1.33;;;;;;;-146.48;100.00;43482.03;5283050;28;20472;-67
2022/01/21 05:03:39;;;;;;;6.10;1.00;;;;;;;-146.48;100.00;43410.22;5284455;28;20016;-67
2022/01/21 05:06:10;;;;;;;8.87;1.03;;;;;;;-146.48;100.00;43362.31;5283656;28;20170;-67
2022/01/21 05:08:51;;;;;;;13.10;0.70;;;;;;;-146.48;100.00;43374.31;5283436;28;20127;-68
2022/01/21 05:11:22;;;;;;;11.27;0.73;;;;;;;-146.48;100.00;43428.16;5283638;28;20021;-68
2022/01/21 05:13:59;;;;;;;11.40;0.77;;;;;;;-146.48;100.00;43412.22;5283912;28;20035;-66
2022/01/21 05:16:35;;;;;;;10.83;0.93;;;;;;;-146.48;100.00;43404.22;5283268;28;20074;-67
2022/01/21 05:19:17;;;;;;;8.60;0.80;;;;;;;-146.48;100.00;43378.28;5283410;28;20074;-67
2022/01/21 05:21:50;;;;;;;12.23;0.80;;;;;;;-146.48;100.00;43414.19;5283437;28;20039;-67
2022/01/21 05:24:21;;;;;;;18.20;1.00;;;;;;;-146.48;100.00;43436.16;5283473;28;20361;-68
2022/01/21 05:26:54;;;;;;;13.47;1.00;;;;;;;-146.48;100.00;43414.19;5283845;28;20078;-68
2022/01/21 05:29:30;;;;;;;9.00;0.80;;;;;;;-146.48;100.00;43456.09;5282653;28;20033;-68
2022/01/21 05:32:03;;;;;;;12.27;1.33;;;;;;;-146.48;100.00;43432.16;5283369;28;20029;-67
2022/01/21 05:34:34;;;;;;;13.13;1.37;;;;;;;-146.48;100.00;43420.19;5283744;28;20028;-68
2022/01/21 05:37:06;;;;;;;11.47;1.10;;;;;;;-146.48;100.00;43414.19;5282358;28;20051;-67
2022/01/21 05:39:37;;;;;;;12.07;1.73;;;;;;;-146.48;100.00;43414.19;5283564;28;20033;-67
2022/01/21 05:42:08;;;;;;;11.23;1.30;;;;;;;-146.48;100.00;43404.22;5282712;28;20078;-68
2022/01/21 05:47:11;;;;;;;9.40;1.83;;;;;;;-146.48;100.00;43308.47;5281867;28;20485;-67
2022/01/21 05:49:42;;;;;;;10.67;1.90;;;;;;;-146.48;100.00;43240.63;5282793;28;20040;-68
2022/01/21 05:52:18;;;;;;;14.73;2.37;;;;;;;-146.48;100.00;43290.50;5282832;28;20055;-68
2022/01/21 05:54:49;;;;;;;13.77;1.60;;;;;;;-146.48;100.00;43346.38;5283314;28;20489;-67
2022/01/21 05:57:21;;;;;;;15.17;2.53;;;;;;;-146.48;100.00;43240.63;5281986;28;20028;-66
2022/01/21 05:59:52;;;;;;;15.80;3.10;;;;;;;-146.48;100.00;43316.44;5282896;28;20029;-68
2022/01/21 06:02:23;;;;;;;16.43;2.37;;;;;;;-146.48;100.00;43286.50;5282858;28;20043;-67
2022/01/21 06:04:55;;;;;;;15.23;2.80;;;;;;;-146.48;100.00;43356.34;5281728;28;20021;-68
2022/01/21 06:07:27;;;;;;;14.87;3.10;;;;;;;-146.48;100.00;43376.28;5282914;28;20032;-67
2022/01/21 06:09:58;;;;;;;15.17;3.50;;;;;;;-146.48;100.00;43388.25;5282646;28;20033;-68
2022/01/21 06:12:29;;;;;;;15.70;2.77;;;;;;;-146.48;100.00;43362.31;5282299;28;20028;-68
2022/01/21 06:15:00;;;;;;;13.30;3.23;;;;;;;-146.48;100.00;43230.66;5282330;28;20021;-68
2022/01/21 06:17:32;;;;;;;19.23;4.03;;;;;;;-146.48;100.00;43244.63;5282651;28;20051;-68
2022/01/21 06:20:03;;;;;;;16.67;4.57;;;;;;;-146.48;100.00;43240.63;5281564;28;20024;-68
2022/01/21 06:22:35;;;;;;;20.07;3.67;;;;;;;-146.48;100.00;43188.75;5282947;28;20023;-67
2022/01/21 06:25:06;;;;;;;14.37;3.57;;;;;;;-146.48;100.00;43346.38;5281456;28;20138;-67
2022/01/21 06:27:39;;;;;;;13.97;3.60;;;;;;;-146.48;100.00;43304.47;5282490;28;20036;-67
2022/01/21 06:30:11;;;;;;;15.20;4.10;;;;;;;-146.48;100.00;43270.56;5281895;28;20054;-68
2022/01/21 06:32:43;;;;;;;16.50;4.40;;;;;;;-146.48;100.00;43334.41;5281875;28;20020;-67
2022/01/21 06:35:14;;;;;;;16.20;4.40;;;;;;;-146.48;100.00;43372.31;5282028;28;20056;-68
2022/01/21 06:37:45;;;;;;;14.63;4.40;;;;;;;-146.48;100.00;43424.19;5282499;28;20028;-67
2022/01/21 06:40:19;;;;;;;12.73;4.03;;;;;;;-146.48;100.00;43458.09;5281028;28;20039;-67
2022/01/21 06:42:51;;;;;;;12.87;4.30;;;;;;;-146.48;100.00;43344.38;5282453;28;20460;-67
2022/01/21 06:45:23;;;;;;;15.40;4.47;;;;;;;-146.48;100.00;43392.25;5281973;28;20020;-68
2022/01/21 06:47:54;;;;;;;18.63;3.67;;;;;;;-146.48;100.00;43270.56;5281204;28;20040;-68
2022/01/21 06:50:26;;;;;;;10.33;3.73;;;;;;;-146.48;100.00;43352.34;5281813;28;20031;-68
2022/01/21 06:52:57;;;;;;;15.57;4.93;;;;;;;-146.48;100.00;43282.53;5280702;28;20028;-68
2022/01/21 06:55:29;;;;;;;16.13;5.30;;;;;;;-146.48;100.00;43330.41;5282003;28;20095;-67
2022/01/21 06:58:00;;;;;;;16.43;5.50;;;;;;;-146.48;100.00;43282.53;5281015;28;20036;-67
2022/01/21 07:00:32;;;;;;;17.30;6.10;;;;;;;-146.48;100.00;43112.94;5281286;28;20029;-68
2022/01/21 07:03:03;;;;;;;15.40;5.37;;;;;;;-146.48;100.00;43023.16;5281271;28;20033;-67
2022/01/21 07:05:34;;;;;;;13.30;5.90;;;;;;;-146.48;100.00;43106.94;5281548;28;20079;-68
2022/01/21 07:08:06;;;;;;;18.63;6.40;;;;;;;-146.48;100.00;43039.13;5280565;28;20075;-67
2022/01/21 07:10:37;;;;;;;16.53;5.80;;;;;;;-146.48;100.00;43051.09;5281797;28;20048;-68
2022/01/21 07:13:10;;;;;;;16.90;7.13;;;;;;;-146.48;100.00;43059.06;5281117;28;20111;-68
2022/01/21 07:15:41;;;;;;;12.90;6.60;;;;;;;-146.48;100.00;42995.22;5280832;28;20037;-68
2022/01/21 07:18:12;;;;;;;14.23;6.40;;;;;;;-146.48;100.00;42973.28;5280748;28;20032;-68
2022/01/21 07:20:44;;;;;;;16.97;6.67;;;;;;;-146.48;100.00;42995.22;5281481;28;20361;-68
2022/01/21 07:23:15;;;;;;;21.43;7.50;;;;;;;-146.48;100.00;42995.22;5280169;28;20535;-68
2022/01/21 07:25:47;;;;;;;12.33;7.03;;;;;;;-146.48;100.00;42941.38;5281537;28;20495;-68
2022/01/21 07:28:18;;;;;;;15.00;6.87;;;;;;;-146.48;100.00;42937.38;5280130;28;20021;-68
2022/01/21 07:30:50;;;;;;;16.53;6.70;;;;;;;-146.48;100.00;42997.22;5281597;28;20024;-68
2022/01/21 07:33:21;;;;;;;18.23;7.27;;;;;;;-146.48;100.00;42971.28;5281073;28;20028;-67
2022/01/21 07:35:52;;;;;;;14.07;6.17;;;;;;;-146.48;100.00;42847.59;5280415;28;20017;-68
2022/01/21 07:38:23;;;;;;;16.43;6.50;;;;;;;-146.48;100.00;42909.44;5281199;28;20028;-67
2022/01/21 07:40:55;;;;;;;17.07;6.77;;;;;;;-146.48;100.00;42849.59;5279550;28;20107;-68
2022/01/21 07:43:26;;;;;;;13.40;7.03;;;;;;;-146.48;100.00;42789.75;5279322;28;20526;-67
2022/01/21 07:45:57;;;;;;;13.70;7.13;;;;;;;-146.48;100.00;42761.81;5279650;28;20033;-68
2022/01/21 07:48:29;;;;;;;16.07;6.73;;;;;;;-146.48;100.00;42829.66;5280156;28;20031;-67
2022/01/21 07:51:00;;;;;;;10.33;6.17;;;;;;;-146.48;100.00;42662.06;5278653;28;20025;-68
2022/01/21 07:53:31;;;;;;;14.43;5.73;;;;;;;-146.48;100.00;42660.09;5279413;28;20391;-67
2022/01/21 07:56:03;;;;;;;12.10;5.90;;;;;;;-146.48;100.00;42606.22;5279264;28;20444;-67
2022/01/21 07:58:35;;;;;;;16.33;6.80;;;;;;;-146.48;100.00;42540.38;5279252;28;20123;-67
2022/01/21 08:01:06;;;;;;;16.80;7.57;;;;;;;-146.48;100.00;42402.75;5279480;28;20131;-68
2022/01/21 08:03:37;;;;;;;16.03;5.57;;;;;;;-146.48;100.00;42285.06;5279088;28;20563;-69
2022/01/21 08:06:09;;;;;;;12.90;5.30;;;;;;;-146.48;100.00;42067.66;5279288;28;20103;-69
2022/01/21 08:08:40;;;;;;;14.33;5.53;;;;;;;-146.48;100.00;41983.88;5279640;28;20120;-69
2022/01/21 08:11:11;;;;;;;12.67;5.17;;;;;;;-146.48;100.00;42103.56;5282154;28;20036;-69
2022/01/21 08:13:42;;;;;;;10.63;5.07;;;;;;;-146.48;100.00;42259.13;5283930;28;20051;-69
2022/01/21 08:16:14;;;;;;;19.17;5.20;;;;;;;-146.48;100.00;42287.06;5283300;28;20467;-68
2022/01/21 08:18:45;;;;;;;15.17;5.13;;;;;;;-146.48;100.00;42173.38;5283255;28;20032;-68
2022/01/21 08:21:19;;;;;;;14.53;5.50;;;;;;;-146.48;100.00;42219.25;5282857;28;20056;-68
2022/01/21 08:23:53;;;;;;;15.13;5.20;;;;;;;-146.48;100.00;41852.25;5283526;28;20060;-68
2022/01/21 08:26:27;;;;;;;12.57;4.17;;;;;;;-146.48;100.00;41798.41;5282667;28;20549;-69
2022/01/21 08:28:59;;;;;;;12.93;4.43;;;;;;;-146.48;100.00;41856.25;5283197;28;20027;-69
2022/01/21 08:31:31;;;;;;;11.60;3.50;;;;;;;-146.48;100.00;41880.16;5283067;28;20021;-68
2022/01/21 08:34:04;;;;;;;12.30;3.90;;;;;;;-146.48;100.00;41690.69;5282628;28;20122;-68
2022/01/21 08:36:35;;;;;;;8.47;3.10;;;;;;;-146.48;100.00;41718.63;5283677;28;20104;-67
2022/01/21 08:39:07;;;;;;;7.60;3.30;;;;;;;-146.48;100.00;41894.13;5282031;28;20035;-67
2022/01/21 08:41:38;;;;;;;10.17;4.07;;;;;;;-146.48;100.00;41924.06;5283664;28;20024;-67
2022/01/21 08:44:10;;;;;;;11.33;3.60;;;;;;;-146.48;100.00;41766.50;5282903;28;20017;-68
2022/01/21 08:46:41;;;;;;;10.67;2.73;;;;;;;-146.48;100.00;41894.13;5282169;28;20143;-68
2022/01/21 08:49:12;;;;;;;8.90;2.90;;;;;;;-146.48;100.00;41910.09;5284380;28;20414;-68
2022/01/21 08:51:50;;;;;;;8.80;2.77;;;;;;;-146.48;100.00;41826.31;5284436;28;20024;-68
2022/01/21 08:54:22;;;;;;;7.80;2.10;;;;;;;-146.48;100.00;41864.22;5283333;28;20028;-68
2022/01/21 08:56:55;;;;;;;7.13;2.67;;;;;;;-146.48;100.00;41780.44;5284105;28;20107;-68
2022/01/21 08:59:26;;;;;;;8.75;2.92;;;;;;;-146.48;100.00;41812.38;5283750;28;20120;-68
2022/01/21 09:01:58;;;;;;;11.10;2.93;;;;;;;-146.48;100.00;41788.44;5283343;28;20439;-69
2022/01/21 09:04:29;;;;;;;7.87;2.10;;;;;;;-146.48;100.00;41604.94;5284470;28;20118;-68
2022/01/21 09:07:01;;;;;;;6.80;2.33;;;;;;;-146.48;100.00;41628.88;5282823;28;20048;-68
2022/01/21 09:09:32;;;;;;;9.60;2.57;;;;;;;-146.48;100.00;41525.19;5284149;28;20123;-69
2022/01/21 09:12:04;;;;;;;8.82;1.58;;;;;;;-146.48;100.00;41333.72;5283523;28;20507;-67
2022/01/21 09:14:36;;;;;;;7.35;2.17;;;;;;;-146.48;100.00;41371.63;5283117;28;20119;-68
2022/01/21 09:17:07;;;;;;;7.67;2.00;;;;;;;-146.48;100.00;41297.84;5283490;28;20024;-68
2022/01/21 09:19:38;;;;;;;14.27;2.67;;;;;;;-146.48;100.00;41387.56;5283960;28;20032;-68
2022/01/21 09:22:10;;;;;;;10.90;2.03;;;;;;;-146.48;100.00;41612.94;5282267;28;20060;-69
2022/01/21 09:24:41;;;;;;;9.50;1.77;;;;;;;-146.48;100.00;41620.91;5283925;28;20112;-68
2022/01/21 09:27:12;;;;;;;8.30;2.08;;;;;;;-146.48;100.00;41636.84;5283226;28;20361;-67
2022/01/21 09:29:44;;;;;;;15.15;2.35;;;;;;;-146.48;100.00;41345.69;5283246;28;20056;-67
2022/01/21 09:32:17;;;;;;;9.35;1.30;;;;;;;-146.48;100.00;41120.34;5283165;28;20217;-67
2022/01/21 09:34:48;;;;;;;7.75;1.30;;;;;;;-146.48;100.00;40857.16;5282957;28;20067;-67
2022/01/21 09:37:20;;;;;;;12.07;1.48;;;;;;;-146.48;100.00;40845.19;5283058;28;20052;-67
2022/01/21 09:39:51;;;;;;;13.48;1.38;;;;;;;-146.48;100.00;40729.53;5284097;28;20043;-68
2022/01/21 09:42:23;;;;;;;8.80;1.45;;;;;;;-146.48;100.00;40520.19;5282243;28;20024;-67
2022/01/21 09:44:54;;;;;;;10.45;1.52;;;;;;;-146.48;100.00;40372.66;5283480;28;20551;-66
2022/01/21 09:47:31;;;;;;;11.23;1.55;;;;;;;-146.48;100.00;40372.66;5283257;28;20036;-67
2022/01/21 09:50:02;;;;;;;8.70;1.50;;;;;;;-146.48;100.00;40364.69;5282021;28;20040;-67
2022/01/21 09:52:36;;;;;;;6.72;1.05;;;;;;;-146.48;100.00;40257.03;5283470;28;20391;-67
2022/01/21 09:55:07;;;;;;;8.45;1.40;;;;;;;-146.48;100.00;40270.97;5282852;28;20460;-68
2022/01/21 09:57:41;;;;;;;9.30;1.50;;;;;;;-146.48;100.00;40272.97;5282463;28;20028;-67
2022/01/21 10:00:14;;;;;;;7.63;1.40;;;;;;;-146.48;100.00;40191.22;5282526;28;20032;-68
2022/01/21 10:02:48;;;;;;;10.77;1.80;;;;;;;-146.48;100.00;40241.06;5282610;28;20058;-67
2022/01/21 10:05:19;;;;;;;8.30;1.27;;;;;;;-146.48;100.00;40205.19;5282422;28;20127;-67
2022/01/21 10:07:51;;;;;;;8.45;1.65;;;;;;;-146.48;100.00;40173.28;5283110;28;20107;-67
2022/01/21 10:10:23;;;;;;;6.72;1.48;;;;;;;-146.48;100.00;40133.41;5281693;28;20032;-69
2022/01/21 10:13:01;;;;;;;8.27;1.35;;;;;;;-146.48;100.00;40067.63;5282447;28;20107;-67
2022/01/21 10:15:34;;;;;;;11.63;1.20;;;;;;;-146.48;100.00;40129.44;5283073;28;20434;-67
2022/01/21 10:18:15;;;;;;;8.93;2.63;;;;;;;-146.48;100.00;39950.03;5281413;28;20036;-67
2022/01/21 10:20:56;;;;;;;12.07;2.00;;;;;;;-146.48;100.00;40001.84;5282696;28;20036;-66
2022/01/21 10:23:29;;;;;;;9.55;1.23;;;;;;;-146.48;100.00;39989.88;5282761;28;20468;-66
2022/01/21 10:26:11;;;;;;;10.73;1.50;;;;;;;-146.48;100.00;39826.41;5281536;28;20173;-66
2022/01/21 10:28:52;;;;;;;10.20;1.20;;;;;;;-146.48;100.00;39613.13;5282672;28;20098;-66
2022/01/21 10:31:25;;;;;;;10.50;1.25;;;;;;;-146.48;100.00;39455.66;5279516;28;20028;-67
2022/01/21 10:34:04;;;;;;;12.18;1.23;;;;;;;-146.48;100.00;39334.09;5280220;28;20465;-68
2022/01/21 10:36:44;;;;;;;12.77;1.17;;;;;;;-146.48;100.00;39314.16;5281269;28;20036;-67
2022/01/21 10:39:28;;;;;;;11.07;1.63;;;;;;;-146.48;100.00;39288.25;5279866;28;20366;-67
2022/01/21 10:42:01;;;;;;;11.68;1.20;;;;;;;-146.48;100.00;39276.28;5280479;28;20027;-67
2022/01/21 10:44:32;;;;;;;16.50;2.08;;;;;;;-146.48;100.00;39146.72;5280867;28;20021;-67
2022/01/21 10:47:05;;;;;;;8.85;1.70;;;;;;;-146.48;100.00;39041.09;5279715;28;20055;-67
2022/01/21 10:49:44;;;;;;;11.93;1.35;;;;;;;-146.48;100.00;38778.03;5281089;28;20025;-67
2022/01/21 10:52:17;;;;;;;;;;;;;;;-146.48;100.00;38596.69;5279944;28;20027;-67
2022/01/21 10:54:50;;;;;;;6.68;1.33;;;;;;;-146.48;100.00;38321.69;5280836;28;19912;-67
2022/01/21 10:57:22;;;;;;;11.35;1.38;;;;;;;-146.48;100.00;38176.22;5279893;28;20035;-67
2022/01/21 11:00:09;;;;;;;7.68;1.08;;;;;;;-146.48;100.00;38028.78;5279803;28;20032;-68
2022/01/21 11:02:54;;;;;;;10.07;1.48;;;;;;;-146.48;100.00;37869.38;5278761;28;20472;-67
2022/01/21 11:05:33;;;;;;;8.32;0.80;;;;;;;-146.48;100.00;37508.78;5284439;28;20155;-67
2022/01/21 11:08:10;;;;;;;10.35;0.90;;;;;;;-146.48;100.00;37329.47;5278937;28;20475;-67
2022/01/21 11:10:49;;;;;;;10.27;1.40;;;;;;;-146.48;100.00;37357.38;5280815;28;20021;-67
2022/01/21 11:13:21;;;;;;;11.60;1.25;;;;;;;-146.48;100.00;37391.22;5278967;28;20506;-67
2022/01/21 11:15:57;;;;;;;16.70;1.23;;;;;;;-146.48;100.00;37367.31;5279903;28;20037;-67
2022/01/21 11:18:30;;;;;;;14.75;1.70;;;;;;;-146.48;100.00;37520.72;5280633;28;20032;-67
2022/01/21 11:21:07;;;;;;;14.77;1.42;;;;;;;-146.48;100.00;37602.41;5279265;28;20091;-67
2022/01/21 11:23:38;;;;;;;18.48;1.73;;;;;;;-146.48;100.00;37586.47;5280597;28;20231;-67
2022/01/21 11:26:14;;;;;;;12.80;2.05;;;;;;;-146.48;100.00;37464.94;5280352;28;20028;-68
2022/01/21 11:28:49;;;;;;;14.15;1.95;;;;;;;-146.48;100.00;37293.63;5279319;28;20029;-67
2022/01/21 11:31:26;;;;;;;12.52;1.10;;;;;;;-146.48;100.00;37178.06;5279829;28;20108;-67
2022/01/21 11:33:57;;;;;;;9.52;1.50;;;;;;;-146.48;100.00;37044.59;5279596;28;20043;-67
2022/01/21 11:36:29;;;;;;;16.00;1.77;;;;;;;-146.48;100.00;36966.91;5279358;28;20029;-68
2022/01/21 11:39:01;;;;;;;13.10;2.15;;;;;;;-146.48;100.00;36869.31;5279126;28;20373;-67
2022/01/21 11:41:35;;;;;;;15.82;1.85;;;;;;;-146.48;100.00;36684.06;5279856;28;20612;-68
2022/01/21 11:44:08;;;;;;;9.63;1.80;;;;;;;-146.48;100.00;36562.56;5279221;28;20036;-67
2022/01/21 11:46:41;;;;;;;19.15;3.05;;;;;;;-146.48;100.00;36371.38;5281780;28;20055;-67
2022/01/21 11:49:18;;;;;;;11.77;1.33;;;;;;;-146.48;100.00;36315.59;5288487;28;20108;-68
2022/01/21 11:52:07;;;;;;;11.40;1.50;;;;;;;-146.48;100.00;36194.13;5295432;28;20379;-68
2022/01/21 11:54:39;;;;;;;10.95;1.30;;;;;;;-146.48;100.00;36263.81;5301250;28;20032;-68
2022/01/21 11:57:11;;;;;;;10.38;1.88;;;;;;;-146.48;100.00;36128.41;5299376;28;20600;-67
2022/01/21 12:02:36;;;;;;;8.20;1.77;;;;;;;-146.48;100.00;36072.63;5300298;28;20543;-67
2022/01/21 12:05:10;;;;;;;9.25;1.33;;;;;;;-146.48;100.00;36040.75;5299838;28;20020;-68
2022/01/21 12:07:45;;;;;;;11.90;1.58;;;;;;;-146.48;100.00;36040.75;5301070;28;20126;-67
2022/01/21 12:10:23;;;;;;;10.07;1.00;;;;;;;-146.48;100.00;36118.44;5299473;28;20032;-67
2022/01/21 12:12:57;;;;;;;16.08;1.40;;;;;;;-146.48;100.00;36070.63;5300778;28;20028;-68
2022/01/21 12:15:42;;;;;;;15.05;1.65;;;;;;;-146.48;100.00;35979.03;5300984;28;20028;-68
2022/01/21 12:21:05;;;;;;;8.25;1.33;;;;;;;-146.48;100.00;35801.78;5300184;28;20024;-68
2022/01/21 12:23:44;;;;;;;9.10;1.02;;;;;;;-146.48;100.00;35767.94;5300049;28;20035;-67
2022/01/21 12:26:25;;;;;;;10.65;1.30;;;;;;;-146.48;100.00;35875.47;5300168;28;20024;-67